UAL25 KMEM-KDEN
Flight info
| Callsign | UAL25 |
|---|---|
| Flight time | 2h 9m |
| Altitude | 36000 |
| Route | ZUMIT5 FOXOM RZC PER GCK KIISS CLASH5 |
| Aircraft | A320/M-SDE3FGHIRWY/LB1 |
Departure
| Time | 2026-05-03 21:20 |
|---|---|
| Airport | Memphis International Airport (KMEM) |
Arrival
| Time | 2026-05-03 23:29 |
|---|---|
| Airport | Denver International Airport (KDEN) |
| Time | Latitude | Longitude | Altitude | Speed | Heading |
|---|---|---|---|---|---|
| 2026-05-03 20:52 | 35.04196 | -89.98037 | 0 ft | 0 kts | 223° |
| 2026-05-03 21:10 | 35.04197 | -89.98035 | 330 ft | 3 kts | 223° |
| 2026-05-03 21:11 | 35.04218 | -89.98018 | 326 ft | 4 kts | 186° |
| 2026-05-03 21:11 | 35.04240 | -89.98023 | 326 ft | 3 kts | 136° |
| 2026-05-03 21:11 | 35.04242 | -89.98025 | 326 ft | 0 kts | 135° |
| 2026-05-03 21:13 | 35.04240 | -89.98023 | 326 ft | 2 kts | 135° |
| 2026-05-03 21:13 | 35.04225 | -89.98005 | 329 ft | 4 kts | 135° |
| 2026-05-03 21:14 | 35.04197 | -89.97953 | 328 ft | 11 kts | 104° |
| 2026-05-03 21:14 | 35.04186 | -89.97857 | 329 ft | 10 kts | 132° |
| 2026-05-03 21:14 | 35.04113 | -89.97835 | 327 ft | 12 kts | 178° |
| 2026-05-03 21:14 | 35.04023 | -89.97837 | 329 ft | 14 kts | 180° |
| 2026-05-03 21:15 | 35.03919 | -89.97841 | 328 ft | 16 kts | 199° |
| 2026-05-03 21:15 | 35.03888 | -89.97957 | 329 ft | 16 kts | 270° |
| 2026-05-03 21:15 | 35.03887 | -89.98100 | 330 ft | 18 kts | 268° |
| 2026-05-03 21:15 | 35.03883 | -89.98258 | 330 ft | 20 kts | 269° |
| 2026-05-03 21:16 | 35.03881 | -89.98431 | 331 ft | 21 kts | 269° |
| 2026-05-03 21:16 | 35.03981 | -89.98494 | 330 ft | 19 kts | 0° |
| 2026-05-03 21:16 | 35.04124 | -89.98496 | 328 ft | 21 kts | 358° |
| 2026-05-03 21:16 | 35.04280 | -89.98501 | 328 ft | 23 kts | 359° |
| 2026-05-03 21:17 | 35.04450 | -89.98505 | 329 ft | 25 kts | 358° |
| 2026-05-03 21:17 | 35.04568 | -89.98505 | 328 ft | 26 kts | 360° |
| 2026-05-03 21:17 | 35.04823 | -89.98511 | 328 ft | 28 kts | 359° |
| 2026-05-03 21:17 | 35.04936 | -89.98543 | 329 ft | 5 kts | 268° |
| 2026-05-03 21:18 | 35.04934 | -89.98590 | 331 ft | 6 kts | 269° |
| 2026-05-03 21:18 | 35.04934 | -89.98625 | 332 ft | 0 kts | 269° |
| 2026-05-03 21:18 | 35.04934 | -89.98657 | 333 ft | 12 kts | 269° |
| 2026-05-03 21:18 | 35.04891 | -89.98741 | 331 ft | 13 kts | 201° |
| 2026-05-03 21:19 | 35.04803 | -89.98740 | 331 ft | 20 kts | 179° |
| 2026-05-03 21:19 | 35.04412 | -89.98735 | 329 ft | 90 kts | 180° |
| 2026-05-03 21:19 | 35.03607 | -89.98718 | 331 ft | 141 kts | 180° |
| 2026-05-03 21:19 | 35.02524 | -89.98683 | 653 ft | 157 kts | 181° |
| 2026-05-03 21:20 | 35.01434 | -89.98637 | 1278 ft | 161 kts | 181° |
| 2026-05-03 21:20 | 35.00270 | -89.98600 | 1933 ft | 168 kts | 187° |
| 2026-05-03 21:20 | 34.99139 | -89.98866 | 2487 ft | 170 kts | 199° |
| 2026-05-03 21:20 | 34.97932 | -89.99392 | 2755 ft | 194 kts | 202° |
| 2026-05-03 21:21 | 34.96611 | -90.00018 | 3076 ft | 219 kts | 202° |
| 2026-05-03 21:21 | 34.95165 | -90.00862 | 3552 ft | 241 kts | 220° |
| 2026-05-03 21:21 | 34.94244 | -90.02589 | 4225 ft | 251 kts | 257° |
| 2026-05-03 21:21 | 34.94127 | -90.04727 | 5101 ft | 254 kts | 271° |
| 2026-05-03 21:22 | 34.94130 | -90.06887 | 5998 ft | 257 kts | 271° |
| 2026-05-03 21:22 | 34.94145 | -90.09086 | 6823 ft | 262 kts | 274° |
| 2026-05-03 21:22 | 34.94457 | -90.11281 | 7584 ft | 266 kts | 289° |
| 2026-05-03 21:22 | 34.95215 | -90.13355 | 8366 ft | 269 kts | 297° |
| 2026-05-03 21:23 | 34.96053 | -90.15410 | 9164 ft | 273 kts | 297° |
| 2026-05-03 21:23 | 34.96891 | -90.17480 | 9936 ft | 277 kts | 297° |
| 2026-05-03 21:23 | 34.97757 | -90.19629 | 10415 ft | 292 kts | 297° |
| 2026-05-03 21:23 | 34.98653 | -90.21997 | 10631 ft | 315 kts | 294° |
| 2026-05-03 21:24 | 34.99514 | -90.24463 | 11136 ft | 324 kts | 293° |
| 2026-05-03 21:24 | 35.00380 | -90.27028 | 11795 ft | 328 kts | 293° |
| 2026-05-03 21:24 | 35.01247 | -90.29618 | 12480 ft | 332 kts | 293° |
| 2026-05-03 21:24 | 35.02129 | -90.32237 | 13158 ft | 335 kts | 294° |
| 2026-05-03 21:25 | 35.03031 | -90.34872 | 13842 ft | 338 kts | 295° |
| 2026-05-03 21:25 | 35.04003 | -90.37510 | 14462 ft | 341 kts | 296° |
| 2026-05-03 21:25 | 35.05018 | -90.40130 | 15098 ft | 342 kts | 297° |
| 2026-05-03 21:25 | 35.06056 | -90.42747 | 15732 ft | 344 kts | 297° |
| 2026-05-03 21:26 | 35.07103 | -90.45384 | 16364 ft | 345 kts | 297° |
| 2026-05-03 21:26 | 35.08146 | -90.48034 | 16993 ft | 347 kts | 297° |
| 2026-05-03 21:26 | 35.09188 | -90.50705 | 17626 ft | 349 kts | 297° |
| 2026-05-03 21:26 | 35.10216 | -90.53360 | 18253 ft | 351 kts | 297° |
| 2026-05-03 21:27 | 35.11261 | -90.56068 | 18833 ft | 353 kts | 296° |
| 2026-05-03 21:27 | 35.12325 | -90.58828 | 19399 ft | 356 kts | 296° |
| 2026-05-03 21:27 | 35.13364 | -90.61526 | 19954 ft | 358 kts | 296° |
| 2026-05-03 21:27 | 35.14431 | -90.64303 | 20537 ft | 360 kts | 296° |
| 2026-05-03 21:28 | 35.15494 | -90.67081 | 21072 ft | 363 kts | 296° |
| 2026-05-03 21:28 | 35.16569 | -90.69884 | 21612 ft | 365 kts | 296° |
| 2026-05-03 21:28 | 35.17544 | -90.72764 | 22127 ft | 369 kts | 289° |
| 2026-05-03 21:28 | 35.18068 | -90.75855 | 22648 ft | 375 kts | 278° |
| 2026-05-03 21:29 | 35.18158 | -90.79057 | 23155 ft | 379 kts | 273° |
| 2026-05-03 21:29 | 35.18197 | -90.82292 | 23661 ft | 381 kts | 274° |
| 2026-05-03 21:29 | 35.18246 | -90.85547 | 24086 ft | 384 kts | 274° |
| 2026-05-03 21:29 | 35.18299 | -90.88815 | 24505 ft | 386 kts | 274° |
| 2026-05-03 21:30 | 35.18353 | -90.92105 | 24923 ft | 388 kts | 274° |
| 2026-05-03 21:30 | 35.18407 | -90.95414 | 25337 ft | 390 kts | 274° |
| 2026-05-03 21:30 | 35.18502 | -90.98728 | 25754 ft | 390 kts | 278° |
| 2026-05-03 21:30 | 35.18979 | -91.01939 | 26133 ft | 389 kts | 288° |
| 2026-05-03 21:31 | 35.19918 | -91.05040 | 26536 ft | 389 kts | 295° |
| 2026-05-03 21:31 | 35.21018 | -91.08072 | 26923 ft | 391 kts | 295° |
| 2026-05-03 21:31 | 35.22115 | -91.11123 | 27308 ft | 393 kts | 295° |
| 2026-05-03 21:31 | 35.23209 | -91.14192 | 27697 ft | 394 kts | 295° |
| 2026-05-03 21:32 | 35.24308 | -91.17275 | 28091 ft | 396 kts | 295° |
| 2026-05-03 21:32 | 35.25411 | -91.20365 | 28477 ft | 397 kts | 295° |
| 2026-05-03 21:32 | 35.26520 | -91.23477 | 28859 ft | 399 kts | 295° |
| 2026-05-03 21:32 | 35.27630 | -91.26595 | 29232 ft | 401 kts | 295° |
| 2026-05-03 21:33 | 35.28743 | -91.29729 | 29593 ft | 403 kts | 295° |
| 2026-05-03 21:33 | 35.29862 | -91.32887 | 29955 ft | 404 kts | 295° |
| 2026-05-03 21:33 | 35.30986 | -91.36057 | 30298 ft | 406 kts | 295° |
| 2026-05-03 21:33 | 35.32096 | -91.39189 | 30597 ft | 407 kts | 295° |
| 2026-05-03 21:34 | 35.33234 | -91.42401 | 31019 ft | 405 kts | 294° |
| 2026-05-03 21:34 | 35.34338 | -91.45518 | 31471 ft | 403 kts | 294° |
| 2026-05-03 21:34 | 35.35449 | -91.48652 | 31913 ft | 401 kts | 294° |
| 2026-05-03 21:34 | 35.36556 | -91.51784 | 32360 ft | 399 kts | 294° |
| 2026-05-03 21:35 | 35.37653 | -91.54894 | 32777 ft | 397 kts | 294° |
| 2026-05-03 21:35 | 35.38746 | -91.58000 | 33234 ft | 395 kts | 294° |
| 2026-05-03 21:35 | 35.39829 | -91.61082 | 33699 ft | 393 kts | 294° |
| 2026-05-03 21:35 | 35.40908 | -91.64151 | 34156 ft | 391 kts | 294° |
| 2026-05-03 21:36 | 35.41982 | -91.67204 | 34544 ft | 389 kts | 294° |
| 2026-05-03 21:36 | 35.43050 | -91.70244 | 34908 ft | 387 kts | 294° |
| 2026-05-03 21:36 | 35.44113 | -91.73276 | 35256 ft | 386 kts | 294° |
| 2026-05-03 21:36 | 35.45171 | -91.76297 | 35585 ft | 385 kts | 294° |
| 2026-05-03 21:37 | 35.46224 | -91.79305 | 35906 ft | 384 kts | 294° |
| 2026-05-03 21:37 | 35.47279 | -91.82316 | 36075 ft | 384 kts | 294° |
| 2026-05-03 21:37 | 35.49386 | -91.88360 | 36098 ft | 385 kts | 294° |
| 2026-05-03 21:38 | 35.51491 | -91.94398 | 36101 ft | 385 kts | 294° |
| 2026-05-03 21:38 | 35.53594 | -92.00446 | 36100 ft | 385 kts | 294° |
| 2026-05-03 21:39 | 35.55689 | -92.06481 | 36091 ft | 384 kts | 294° |
| 2026-05-03 21:39 | 35.57784 | -92.12517 | 36084 ft | 384 kts | 294° |
| 2026-05-03 21:40 | 35.59874 | -92.18562 | 36084 ft | 384 kts | 294° |
| 2026-05-03 21:40 | 35.61957 | -92.24616 | 36084 ft | 384 kts | 294° |
| 2026-05-03 21:41 | 35.64040 | -92.30668 | 36080 ft | 384 kts | 294° |
| 2026-05-03 21:41 | 35.66114 | -92.36704 | 36076 ft | 383 kts | 294° |
| 2026-05-03 21:42 | 35.68187 | -92.42746 | 36075 ft | 383 kts | 294° |
| 2026-05-03 21:42 | 35.70248 | -92.48749 | 36080 ft | 383 kts | 294° |
| 2026-05-03 21:43 | 35.72315 | -92.54789 | 36081 ft | 383 kts | 294° |
| 2026-05-03 21:43 | 35.74377 | -92.60833 | 36088 ft | 383 kts | 294° |
| 2026-05-03 21:44 | 35.76428 | -92.66872 | 36087 ft | 382 kts | 294° |
| 2026-05-03 21:44 | 35.78483 | -92.72912 | 36088 ft | 382 kts | 294° |
| 2026-05-03 21:45 | 35.80527 | -92.78955 | 36082 ft | 382 kts | 294° |
| 2026-05-03 21:45 | 35.82571 | -92.84996 | 36078 ft | 381 kts | 294° |
| 2026-05-03 21:46 | 35.84616 | -92.91026 | 36078 ft | 381 kts | 294° |
| 2026-05-03 21:46 | 35.86641 | -92.97033 | 36080 ft | 381 kts | 294° |
| 2026-05-03 21:47 | 35.88669 | -93.03085 | 36075 ft | 381 kts | 294° |
| 2026-05-03 21:47 | 35.90698 | -93.09125 | 36077 ft | 381 kts | 294° |
| 2026-05-03 21:48 | 35.92726 | -93.15167 | 36073 ft | 381 kts | 294° |
| 2026-05-03 21:48 | 35.94740 | -93.21213 | 36074 ft | 381 kts | 293° |
| 2026-05-03 21:49 | 35.96756 | -93.27259 | 36074 ft | 380 kts | 293° |
| 2026-05-03 21:49 | 35.98767 | -93.33301 | 36071 ft | 380 kts | 294° |
| 2026-05-03 21:50 | 36.00773 | -93.39334 | 36068 ft | 380 kts | 293° |
| 2026-05-03 21:50 | 36.02438 | -93.44353 | 36066 ft | 380 kts | 293° |
| 2026-05-03 21:51 | 36.04435 | -93.50392 | 36065 ft | 380 kts | 293° |
| 2026-05-03 21:51 | 36.06754 | -93.57417 | 36057 ft | 379 kts | 293° |
| 2026-05-03 21:52 | 36.08425 | -93.62491 | 36053 ft | 380 kts | 293° |
| 2026-05-03 21:52 | 36.10403 | -93.68494 | 36052 ft | 380 kts | 293° |
| 2026-05-03 21:53 | 36.12394 | -93.74542 | 36054 ft | 380 kts | 292° |
| 2026-05-03 21:53 | 36.14379 | -93.80597 | 36058 ft | 380 kts | 292° |
| 2026-05-03 21:54 | 36.16357 | -93.86656 | 36064 ft | 380 kts | 292° |
| 2026-05-03 21:54 | 36.18341 | -93.92723 | 36070 ft | 380 kts | 292° |
| 2026-05-03 21:55 | 36.20319 | -93.98795 | 36078 ft | 380 kts | 292° |
| 2026-05-03 21:55 | 36.22295 | -94.04882 | 36081 ft | 381 kts | 292° |
| 2026-05-03 21:56 | 36.24263 | -94.10969 | 36083 ft | 381 kts | 291° |
| 2026-05-03 21:56 | 36.25567 | -94.17339 | 36082 ft | 382 kts | 284° |
| 2026-05-03 21:57 | 36.26696 | -94.23731 | 36073 ft | 382 kts | 284° |
| 2026-05-03 21:57 | 36.27840 | -94.30160 | 36071 ft | 382 kts | 284° |
| 2026-05-03 21:58 | 36.28983 | -94.36586 | 36070 ft | 382 kts | 284° |
| 2026-05-03 21:58 | 36.30113 | -94.43011 | 36032 ft | 382 kts | 284° |
| 2026-05-03 21:59 | 36.31232 | -94.49442 | 36064 ft | 381 kts | 284° |
| 2026-05-03 21:59 | 36.32351 | -94.55870 | 36063 ft | 381 kts | 283° |
| 2026-05-03 22:00 | 36.33466 | -94.62301 | 36060 ft | 381 kts | 284° |
| 2026-05-03 22:00 | 36.34588 | -94.68736 | 36054 ft | 381 kts | 284° |
| 2026-05-03 22:01 | 36.35709 | -94.75178 | 36018 ft | 381 kts | 283° |
| 2026-05-03 22:01 | 36.36814 | -94.81570 | 36014 ft | 381 kts | 283° |
| 2026-05-03 22:02 | 36.37921 | -94.88045 | 36014 ft | 381 kts | 283° |
| 2026-05-03 22:02 | 36.39018 | -94.94449 | 36013 ft | 382 kts | 283° |
| 2026-05-03 22:03 | 36.40123 | -95.00895 | 36014 ft | 382 kts | 283° |
| 2026-05-03 22:03 | 36.41217 | -95.07336 | 36011 ft | 381 kts | 283° |
| 2026-05-03 22:04 | 36.42308 | -95.13783 | 36005 ft | 381 kts | 283° |
| 2026-05-03 22:04 | 36.43396 | -95.20223 | 35990 ft | 381 kts | 283° |
| 2026-05-03 22:05 | 36.44473 | -95.26661 | 35980 ft | 380 kts | 283° |
| 2026-05-03 22:05 | 36.45547 | -95.33092 | 35982 ft | 380 kts | 283° |
| 2026-05-03 22:06 | 36.46625 | -95.39529 | 35970 ft | 380 kts | 283° |
| 2026-05-03 22:06 | 36.47696 | -95.45966 | 35972 ft | 381 kts | 283° |
| 2026-05-03 22:07 | 36.48759 | -95.52374 | 35971 ft | 381 kts | 283° |
| 2026-05-03 22:07 | 36.49825 | -95.58818 | 35969 ft | 381 kts | 283° |
| 2026-05-03 22:08 | 36.50888 | -95.65270 | 35967 ft | 381 kts | 283° |
| 2026-05-03 22:08 | 36.51954 | -95.71733 | 35971 ft | 381 kts | 283° |
| 2026-05-03 22:09 | 36.53012 | -95.78197 | 35965 ft | 382 kts | 283° |
| 2026-05-03 22:10 | 36.54588 | -95.87923 | 35962 ft | 382 kts | 283° |
| 2026-05-03 22:10 | 36.55637 | -95.94367 | 35963 ft | 382 kts | 283° |
| 2026-05-03 22:11 | 36.56688 | -96.00853 | 35965 ft | 382 kts | 283° |
| 2026-05-03 22:11 | 36.57733 | -96.07343 | 35963 ft | 383 kts | 283° |
| 2026-05-03 22:12 | 36.58774 | -96.13844 | 35966 ft | 383 kts | 283° |
| 2026-05-03 22:12 | 36.59809 | -96.20347 | 35963 ft | 383 kts | 283° |
| 2026-05-03 22:13 | 36.60842 | -96.26849 | 35963 ft | 383 kts | 282° |
| 2026-05-03 22:13 | 36.61875 | -96.33354 | 35961 ft | 383 kts | 283° |
| 2026-05-03 22:14 | 36.62907 | -96.39867 | 35962 ft | 383 kts | 282° |
| 2026-05-03 22:14 | 36.63934 | -96.46381 | 35958 ft | 384 kts | 282° |
| 2026-05-03 22:15 | 36.64952 | -96.52866 | 35962 ft | 384 kts | 282° |
| 2026-05-03 22:15 | 36.65967 | -96.59395 | 35956 ft | 384 kts | 282° |
| 2026-05-03 22:16 | 36.66986 | -96.65936 | 35959 ft | 384 kts | 282° |
| 2026-05-03 22:16 | 36.67999 | -96.72460 | 35952 ft | 384 kts | 282° |
| 2026-05-03 22:17 | 36.69001 | -96.78998 | 35945 ft | 384 kts | 282° |
| 2026-05-03 22:17 | 36.69999 | -96.85489 | 35940 ft | 384 kts | 282° |
| 2026-05-03 22:18 | 36.71006 | -96.92016 | 35939 ft | 384 kts | 282° |
| 2026-05-03 22:18 | 36.72008 | -96.98554 | 35938 ft | 384 kts | 282° |
| 2026-05-03 22:19 | 36.73002 | -97.05095 | 35938 ft | 384 kts | 282° |
| 2026-05-03 22:19 | 36.73993 | -97.11664 | 35937 ft | 384 kts | 282° |
| 2026-05-03 22:20 | 36.75361 | -97.18075 | 35937 ft | 383 kts | 293° |
| 2026-05-03 22:20 | 36.77506 | -97.24172 | 35928 ft | 384 kts | 293° |
| 2026-05-03 22:21 | 36.79638 | -97.30280 | 35930 ft | 384 kts | 293° |
| 2026-05-03 22:21 | 36.81742 | -97.36355 | 35925 ft | 384 kts | 293° |
| 2026-05-03 22:22 | 36.83856 | -97.42486 | 35925 ft | 384 kts | 293° |
| 2026-05-03 22:22 | 36.85975 | -97.48627 | 35918 ft | 385 kts | 293° |
| 2026-05-03 22:23 | 36.88095 | -97.54762 | 35915 ft | 385 kts | 293° |
| 2026-05-03 22:23 | 36.90217 | -97.60916 | 35909 ft | 386 kts | 293° |
| 2026-05-03 22:24 | 36.92335 | -97.67079 | 35898 ft | 386 kts | 293° |
| 2026-05-03 22:24 | 36.94452 | -97.73245 | 35888 ft | 386 kts | 293° |
| 2026-05-03 22:25 | 36.96562 | -97.79409 | 35890 ft | 386 kts | 293° |
| 2026-05-03 22:25 | 36.98671 | -97.85589 | 35890 ft | 386 kts | 293° |
| 2026-05-03 22:26 | 37.00776 | -97.91783 | 35893 ft | 387 kts | 293° |
| 2026-05-03 22:26 | 37.02887 | -97.97975 | 35898 ft | 387 kts | 292° |
| 2026-05-03 22:27 | 37.04979 | -98.04146 | 35903 ft | 387 kts | 293° |
| 2026-05-03 22:27 | 37.07087 | -98.10364 | 35901 ft | 388 kts | 293° |
| 2026-05-03 22:28 | 37.09193 | -98.16580 | 35903 ft | 388 kts | 293° |
| 2026-05-03 22:28 | 37.11300 | -98.22813 | 35897 ft | 389 kts | 292° |
| 2026-05-03 22:29 | 37.13395 | -98.29059 | 35894 ft | 389 kts | 292° |
| 2026-05-03 22:29 | 37.15495 | -98.35315 | 35886 ft | 389 kts | 292° |
| 2026-05-03 22:30 | 37.17589 | -98.41567 | 35880 ft | 389 kts | 292° |
| 2026-05-03 22:30 | 37.19686 | -98.47844 | 35871 ft | 390 kts | 292° |
| 2026-05-03 22:31 | 37.21772 | -98.54083 | 35870 ft | 391 kts | 292° |
| 2026-05-03 22:31 | 37.23872 | -98.60374 | 35871 ft | 391 kts | 292° |
| 2026-05-03 22:32 | 37.25963 | -98.66676 | 35872 ft | 392 kts | 292° |
| 2026-05-03 22:32 | 37.28062 | -98.72989 | 35876 ft | 392 kts | 292° |
| 2026-05-03 22:33 | 37.30157 | -98.79315 | 35879 ft | 392 kts | 292° |
| 2026-05-03 22:33 | 37.32249 | -98.85646 | 35879 ft | 392 kts | 292° |
| 2026-05-03 22:34 | 37.34336 | -98.91987 | 35877 ft | 393 kts | 292° |
| 2026-05-03 22:34 | 37.36420 | -98.98339 | 35878 ft | 393 kts | 292° |
| 2026-05-03 22:35 | 37.38507 | -99.04697 | 35881 ft | 393 kts | 292° |
| 2026-05-03 22:35 | 37.40579 | -99.11020 | 35878 ft | 393 kts | 292° |
| 2026-05-03 22:36 | 37.42661 | -99.17389 | 35879 ft | 394 kts | 292° |
| 2026-05-03 22:36 | 37.44740 | -99.23772 | 35880 ft | 394 kts | 292° |
| 2026-05-03 22:37 | 37.46815 | -99.30163 | 35881 ft | 395 kts | 292° |
| 2026-05-03 22:37 | 37.48891 | -99.36561 | 35877 ft | 395 kts | 292° |
| 2026-05-03 22:38 | 37.50960 | -99.42969 | 35872 ft | 395 kts | 292° |
| 2026-05-03 22:38 | 37.53030 | -99.49381 | 35870 ft | 395 kts | 292° |
| 2026-05-03 22:39 | 37.54747 | -99.54715 | 35864 ft | 395 kts | 292° |
| 2026-05-03 22:39 | 37.56814 | -99.61140 | 35864 ft | 396 kts | 292° |
| 2026-05-03 22:40 | 37.58881 | -99.67575 | 35871 ft | 396 kts | 292° |
| 2026-05-03 22:40 | 37.60947 | -99.74020 | 35874 ft | 397 kts | 292° |
| 2026-05-03 22:41 | 37.63009 | -99.80481 | 35886 ft | 397 kts | 292° |
| 2026-05-03 22:41 | 37.65057 | -99.86911 | 35897 ft | 398 kts | 292° |
| 2026-05-03 22:42 | 37.67121 | -99.93391 | 35906 ft | 398 kts | 292° |
| 2026-05-03 22:42 | 37.69183 | -99.99878 | 35905 ft | 398 kts | 292° |
| 2026-05-03 22:43 | 37.71241 | -100.06386 | 35905 ft | 399 kts | 292° |
| 2026-05-03 22:43 | 37.73297 | -100.12893 | 35898 ft | 399 kts | 292° |
| 2026-05-03 22:44 | 37.75355 | -100.19415 | 35887 ft | 400 kts | 292° |
| 2026-05-03 22:44 | 37.77411 | -100.25952 | 35875 ft | 400 kts | 292° |
| 2026-05-03 22:45 | 37.79455 | -100.32493 | 35848 ft | 400 kts | 291° |
| 2026-05-03 22:45 | 37.81497 | -100.39046 | 35852 ft | 401 kts | 291° |
| 2026-05-03 22:46 | 37.83547 | -100.45607 | 35849 ft | 401 kts | 291° |
| 2026-05-03 22:46 | 37.85599 | -100.52175 | 35869 ft | 402 kts | 292° |
| 2026-05-03 22:47 | 37.87646 | -100.58756 | 35878 ft | 402 kts | 291° |
| 2026-05-03 22:47 | 37.89686 | -100.65353 | 35881 ft | 402 kts | 291° |
| 2026-05-03 22:48 | 37.91726 | -100.71953 | 35881 ft | 403 kts | 292° |
| 2026-05-03 22:48 | 37.94014 | -100.78425 | 35885 ft | 403 kts | 296° |
| 2026-05-03 22:49 | 37.96547 | -100.84756 | 35877 ft | 403 kts | 297° |
| 2026-05-03 22:49 | 37.99066 | -100.91069 | 35873 ft | 404 kts | 296° |
| 2026-05-03 22:50 | 38.01530 | -100.97452 | 35852 ft | 404 kts | 296° |
| 2026-05-03 22:50 | 38.03978 | -101.03889 | 35842 ft | 404 kts | 296° |
| 2026-05-03 22:51 | 38.06425 | -101.10321 | 35834 ft | 405 kts | 296° |
| 2026-05-03 22:51 | 38.08880 | -101.16760 | 35843 ft | 405 kts | 296° |
| 2026-05-03 22:52 | 38.11341 | -101.23203 | 35841 ft | 405 kts | 296° |
| 2026-05-03 22:52 | 38.13777 | -101.29613 | 35843 ft | 405 kts | 296° |
| 2026-05-03 22:53 | 38.16222 | -101.36075 | 35842 ft | 406 kts | 296° |
| 2026-05-03 22:53 | 38.18667 | -101.42547 | 35845 ft | 406 kts | 296° |
| 2026-05-03 22:54 | 38.21537 | -101.48717 | 35837 ft | 406 kts | 302° |
| 2026-05-03 22:54 | 38.24580 | -101.54782 | 35839 ft | 407 kts | 302° |
| 2026-05-03 22:55 | 38.27614 | -101.60852 | 35852 ft | 407 kts | 302° |
| 2026-05-03 22:55 | 38.30646 | -101.66944 | 35840 ft | 407 kts | 302° |
| 2026-05-03 22:56 | 38.33674 | -101.73043 | 35853 ft | 407 kts | 302° |
| 2026-05-03 22:56 | 38.36686 | -101.79098 | 35843 ft | 408 kts | 302° |
| 2026-05-03 22:57 | 38.39718 | -101.85208 | 35844 ft | 408 kts | 302° |
| 2026-05-03 22:57 | 38.42746 | -101.91324 | 35847 ft | 408 kts | 302° |
| 2026-05-03 22:58 | 38.45774 | -101.97457 | 35849 ft | 408 kts | 302° |
| 2026-05-03 22:58 | 38.48804 | -102.03597 | 35854 ft | 408 kts | 302° |
| 2026-05-03 22:59 | 38.51824 | -102.09738 | 35843 ft | 408 kts | 302° |
| 2026-05-03 22:59 | 38.54841 | -102.15882 | 35855 ft | 408 kts | 302° |
| 2026-05-03 23:00 | 38.57844 | -102.22003 | 35835 ft | 409 kts | 302° |
| 2026-05-03 23:00 | 38.60855 | -102.28163 | 35846 ft | 409 kts | 302° |
| 2026-05-03 23:01 | 38.63859 | -102.34340 | 35843 ft | 409 kts | 302° |
| 2026-05-03 23:01 | 38.66858 | -102.40537 | 35853 ft | 409 kts | 302° |
| 2026-05-03 23:02 | 38.69853 | -102.46727 | 35855 ft | 409 kts | 302° |
| 2026-05-03 23:02 | 38.72846 | -102.52918 | 35851 ft | 409 kts | 302° |
| 2026-05-03 23:03 | 38.75840 | -102.59120 | 35855 ft | 409 kts | 302° |
| 2026-05-03 23:03 | 38.78812 | -102.65290 | 35859 ft | 409 kts | 302° |
| 2026-05-03 23:04 | 38.81820 | -102.71533 | 35522 ft | 412 kts | 302° |
| 2026-05-03 23:04 | 38.83320 | -102.74652 | 35277 ft | 411 kts | 302° |
| 2026-05-03 23:04 | 38.84817 | -102.77770 | 35024 ft | 409 kts | 302° |
| 2026-05-03 23:04 | 38.86302 | -102.80869 | 34775 ft | 407 kts | 304° |
| 2026-05-03 23:05 | 38.87783 | -102.83958 | 34528 ft | 405 kts | 303° |
| 2026-05-03 23:05 | 38.89251 | -102.87034 | 34288 ft | 403 kts | 303° |
| 2026-05-03 23:05 | 38.90710 | -102.90093 | 34042 ft | 401 kts | 303° |
| 2026-05-03 23:05 | 38.92165 | -102.93143 | 33804 ft | 399 kts | 303° |
| 2026-05-03 23:06 | 38.93615 | -102.96182 | 33537 ft | 398 kts | 303° |
| 2026-05-03 23:06 | 38.95056 | -102.99196 | 33182 ft | 394 kts | 303° |
| 2026-05-03 23:06 | 38.96487 | -103.02175 | 32695 ft | 391 kts | 303° |
| 2026-05-03 23:06 | 38.97922 | -103.05138 | 32196 ft | 388 kts | 303° |
| 2026-05-03 23:07 | 38.99344 | -103.08071 | 31703 ft | 386 kts | 303° |
| 2026-05-03 23:07 | 39.00762 | -103.10995 | 31225 ft | 384 kts | 303° |
| 2026-05-03 23:07 | 39.02169 | -103.13905 | 30745 ft | 383 kts | 303° |
| 2026-05-03 23:07 | 39.03568 | -103.16807 | 30280 ft | 381 kts | 303° |
| 2026-05-03 23:08 | 39.04961 | -103.19704 | 29779 ft | 380 kts | 303° |
| 2026-05-03 23:08 | 39.06323 | -103.22557 | 29305 ft | 377 kts | 303° |
| 2026-05-03 23:08 | 39.07682 | -103.25421 | 28862 ft | 374 kts | 303° |
| 2026-05-03 23:08 | 39.09032 | -103.28271 | 28429 ft | 372 kts | 303° |
| 2026-05-03 23:09 | 39.10373 | -103.31109 | 28017 ft | 369 kts | 303° |
| 2026-05-03 23:09 | 39.11706 | -103.33927 | 27593 ft | 368 kts | 303° |
| 2026-05-03 23:09 | 39.13032 | -103.36730 | 27181 ft | 366 kts | 303° |
| 2026-05-03 23:09 | 39.14353 | -103.39525 | 26775 ft | 365 kts | 303° |
| 2026-05-03 23:10 | 39.15672 | -103.42313 | 26373 ft | 363 kts | 303° |
| 2026-05-03 23:10 | 39.16983 | -103.45090 | 25973 ft | 362 kts | 303° |
| 2026-05-03 23:10 | 39.18287 | -103.47861 | 25555 ft | 361 kts | 303° |
| 2026-05-03 23:10 | 39.19590 | -103.50633 | 25134 ft | 361 kts | 303° |
| 2026-05-03 23:11 | 39.20893 | -103.53406 | 24706 ft | 360 kts | 303° |
| 2026-05-03 23:11 | 39.22193 | -103.56171 | 24267 ft | 360 kts | 303° |
| 2026-05-03 23:11 | 39.23490 | -103.58928 | 23826 ft | 360 kts | 303° |
| 2026-05-03 23:11 | 39.24790 | -103.61693 | 23333 ft | 360 kts | 303° |
| 2026-05-03 23:12 | 39.26084 | -103.64451 | 22857 ft | 358 kts | 303° |
| 2026-05-03 23:12 | 39.27371 | -103.67201 | 22387 ft | 356 kts | 303° |
| 2026-05-03 23:12 | 39.28648 | -103.69927 | 21929 ft | 354 kts | 303° |
| 2026-05-03 23:12 | 39.29944 | -103.72545 | 21661 ft | 346 kts | 305° |
| 2026-05-03 23:13 | 39.31286 | -103.75100 | 21282 ft | 342 kts | 306° |
| 2026-05-03 23:13 | 39.32643 | -103.77612 | 20823 ft | 340 kts | 306° |
| 2026-05-03 23:13 | 39.34000 | -103.80108 | 20387 ft | 339 kts | 306° |
| 2026-05-03 23:13 | 39.35343 | -103.82597 | 19969 ft | 337 kts | 306° |
| 2026-05-03 23:14 | 39.36670 | -103.85081 | 19531 ft | 335 kts | 305° |
| 2026-05-03 23:14 | 39.37991 | -103.87574 | 19038 ft | 336 kts | 305° |
| 2026-05-03 23:14 | 39.39296 | -103.90052 | 18626 ft | 332 kts | 305° |
| 2026-05-03 23:14 | 39.40592 | -103.92519 | 18113 ft | 331 kts | 305° |
| 2026-05-03 23:15 | 39.41884 | -103.94977 | 17809 ft | 325 kts | 305° |
| 2026-05-03 23:15 | 39.43090 | -103.97415 | 17505 ft | 320 kts | 297° |
| 2026-05-03 23:15 | 39.43853 | -104.00109 | 17065 ft | 320 kts | 283° |
| 2026-05-03 23:15 | 39.44049 | -104.02973 | 16650 ft | 320 kts | 269° |
| 2026-05-03 23:16 | 39.43943 | -104.05841 | 16165 ft | 317 kts | 268° |
| 2026-05-03 23:16 | 39.43840 | -104.08658 | 15694 ft | 311 kts | 269° |
| 2026-05-03 23:16 | 39.43740 | -104.11450 | 15316 ft | 310 kts | 268° |
| 2026-05-03 23:16 | 39.43642 | -104.14230 | 15001 ft | 307 kts | 268° |
| 2026-05-03 23:17 | 39.43549 | -104.16898 | 14641 ft | 295 kts | 268° |
| 2026-05-03 23:17 | 39.43457 | -104.19558 | 14281 ft | 292 kts | 268° |
| 2026-05-03 23:17 | 39.43370 | -104.22146 | 13926 ft | 292 kts | 268° |
| 2026-05-03 23:17 | 39.43280 | -104.24779 | 13534 ft | 294 kts | 268° |
| 2026-05-03 23:18 | 39.43185 | -104.27419 | 13147 ft | 294 kts | 268° |
| 2026-05-03 23:18 | 39.43086 | -104.30059 | 12772 ft | 294 kts | 268° |
| 2026-05-03 23:18 | 39.42986 | -104.32695 | 12405 ft | 293 kts | 268° |
| 2026-05-03 23:18 | 39.42889 | -104.35331 | 12032 ft | 293 kts | 268° |
| 2026-05-03 23:19 | 39.42794 | -104.37965 | 11651 ft | 293 kts | 268° |
| 2026-05-03 23:19 | 39.42698 | -104.40588 | 11279 ft | 293 kts | 267° |
| 2026-05-03 23:19 | 39.42600 | -104.43229 | 10908 ft | 294 kts | 267° |
| 2026-05-03 23:19 | 39.42508 | -104.45872 | 10478 ft | 296 kts | 267° |
| 2026-05-03 23:20 | 39.42428 | -104.48551 | 10037 ft | 299 kts | 267° |
| 2026-05-03 23:20 | 39.42353 | -104.51247 | 9576 ft | 302 kts | 267° |
| 2026-05-03 23:20 | 39.42275 | -104.53960 | 9261 ft | 299 kts | 267° |
| 2026-05-03 23:20 | 39.42196 | -104.56602 | 9205 ft | 287 kts | 267° |
| 2026-05-03 23:21 | 39.42117 | -104.59139 | 9101 ft | 279 kts | 267° |
| 2026-05-03 23:21 | 39.42041 | -104.61617 | 8978 ft | 272 kts | 268° |
| 2026-05-03 23:21 | 39.42336 | -104.63966 | 8957 ft | 261 kts | 297° |
| 2026-05-03 23:21 | 39.43545 | -104.65586 | 8969 ft | 248 kts | 335° |
| 2026-05-03 23:22 | 39.46823 | -104.66346 | 8982 ft | 241 kts | 354° |
| 2026-05-03 23:22 | 39.48513 | -104.66463 | 8988 ft | 240 kts | 359° |
| 2026-05-03 23:22 | 39.50163 | -104.66453 | 8989 ft | 240 kts | 1° |
| 2026-05-03 23:23 | 39.51833 | -104.66426 | 8992 ft | 240 kts | 0° |
| 2026-05-03 23:23 | 39.53505 | -104.66404 | 8993 ft | 240 kts | 0° |
| 2026-05-03 23:23 | 39.55177 | -104.66384 | 8991 ft | 240 kts | 0° |
| 2026-05-03 23:23 | 39.56840 | -104.66365 | 8997 ft | 236 kts | 0° |
| 2026-05-03 23:24 | 39.58446 | -104.66345 | 8975 ft | 227 kts | 360° |
| 2026-05-03 23:24 | 39.60006 | -104.66327 | 8981 ft | 223 kts | 360° |
| 2026-05-03 23:24 | 39.61550 | -104.66309 | 8988 ft | 221 kts | 360° |
| 2026-05-03 23:24 | 39.63089 | -104.66291 | 8992 ft | 221 kts | 359° |
| 2026-05-03 23:25 | 39.64622 | -104.66272 | 8843 ft | 218 kts | 359° |
| 2026-05-03 23:25 | 39.66127 | -104.66254 | 8564 ft | 215 kts | 360° |
| 2026-05-03 23:25 | 39.67615 | -104.66236 | 8276 ft | 212 kts | 359° |
| 2026-05-03 23:25 | 39.69074 | -104.66219 | 8009 ft | 209 kts | 360° |
| 2026-05-03 23:26 | 39.70485 | -104.66202 | 7745 ft | 195 kts | 360° |
| 2026-05-03 23:26 | 39.71778 | -104.66186 | 7526 ft | 175 kts | 360° |
| 2026-05-03 23:26 | 39.72948 | -104.66172 | 7302 ft | 164 kts | 360° |
| 2026-05-03 23:26 | 39.73694 | -104.66164 | 7166 ft | 160 kts | 359° |
| 2026-05-03 23:27 | 39.75155 | -104.66146 | 6902 ft | 157 kts | 0° |
| 2026-05-03 23:27 | 39.76247 | -104.66133 | 6677 ft | 156 kts | 0° |
| 2026-05-03 23:27 | 39.77334 | -104.66128 | 6500 ft | 156 kts | 0° |
| 2026-05-03 23:27 | 39.78415 | -104.66114 | 6331 ft | 155 kts | 360° |
| 2026-05-03 23:28 | 39.79144 | -104.66112 | 6249 ft | 154 kts | 359° |
| 2026-05-03 23:28 | 39.80222 | -104.66092 | 6067 ft | 155 kts | 359° |
| 2026-05-03 23:28 | 39.81291 | -104.66062 | 5839 ft | 159 kts | 356° |
| 2026-05-03 23:28 | 39.82362 | -104.66070 | 5573 ft | 152 kts | 354° |
| 2026-05-03 23:29 | 39.83395 | -104.66048 | 5434 ft | 135 kts | 355° |
| 2026-05-03 23:29 | 39.84217 | -104.66044 | 5418 ft | 99 kts | 2° |
| 2026-05-03 23:29 | 39.84810 | -104.66039 | 5400 ft | 76 kts | 1° |
| 2026-05-03 23:29 | 39.85239 | -104.66115 | 5394 ft | 43 kts | 333° |
| 2026-05-03 23:30 | 39.85291 | -104.66158 | 5397 ft | 0 kts | 338° |
| 2026-05-03 23:31 | 39.85315 | -104.66173 | 5390 ft | 10 kts | 333° |
| 2026-05-03 23:31 | 39.85400 | -104.66224 | 5393 ft | 16 kts | 344° |
| 2026-05-03 23:32 | 39.85519 | -104.66240 | 5395 ft | 18 kts | 360° |
| 2026-05-03 23:32 | 39.85650 | -104.66242 | 5392 ft | 17 kts | 332° |
| 2026-05-03 23:32 | 39.85679 | -104.66385 | 5389 ft | 20 kts | 268° |
| 2026-05-03 23:32 | 39.85680 | -104.66513 | 5387 ft | 0 kts | 271° |
| 2026-05-03 23:33 | 39.85685 | -104.66520 | 5387 ft | 3 kts | 305° |
| 2026-05-03 23:33 | 39.85720 | -104.66542 | 5387 ft | 7 kts | 343° |